Time;durP1;ratioP1;P1;durP2;ratioP2;P2;SDS_P1;SDS_P2;PMS_P1;PMS_P2;Temp;Humidity;BMP_temperature;BMP_pressure;BME280_temperature;BME280_humidity;BME280_pressure;Samples;Min_cycle;Max_cycle;Signal;HPM_P1;HPM_P2
2022/11/15 00:00:29;;;;;;;0.17;0.17;;;;;;;9.30;73.12;100871.59;5069656;28;20515;-77
2022/11/15 00:02:55;;;;;;;0.32;0.32;;;;;;;9.30;72.47;100874.25;5066205;28;20033;-77
2022/11/15 00:05:22;;;;;;;0.47;0.47;;;;;;;9.32;72.78;100875.09;5064620;28;20017;-77
2022/11/15 00:07:48;;;;;;;0.10;0.10;;;;;;;9.30;73.37;100881.31;5067078;28;20093;-77
2022/11/15 00:10:14;;;;;;;0.32;0.32;;;;;;;9.30;73.02;100876.88;5066603;28;20377;-76
2022/11/15 00:12:40;;;;;;;0.50;0.50;;;;;;;9.29;72.98;100879.56;5066359;28;20627;-77
2022/11/15 00:15:07;;;;;;;0.17;0.17;;;;;;;9.26;73.91;100879.59;5070708;28;20399;-76
2022/11/15 00:17:33;;;;;;;0.20;0.20;;;;;;;9.27;73.49;100871.66;5068697;28;20063;-77
2022/11/15 00:19:59;;;;;;;0.32;0.32;;;;;;;9.29;73.82;100879.56;5067451;28;20028;-77
2022/11/15 00:22:30;;;;;;;0.77;0.77;;;;;;;9.30;73.76;100876.88;5065738;28;20033;-75
2022/11/15 00:24:57;;;;;;;2.88;2.28;;;;;;;9.27;73.92;100861.09;5058122;28;20032;-76
2022/11/15 00:27:23;;;;;;;1.88;1.35;;;;;;;9.31;73.55;100870.72;5067866;28;20498;-77
2022/11/15 00:29:49;;;;;;;0.30;0.30;;;;;;;9.29;74.12;100867.19;5057627;28;20033;-77
2022/11/15 00:32:15;;;;;;;0.30;0.30;;;;;;;9.34;73.94;100867.16;5063895;28;20029;-76
2022/11/15 00:34:41;;;;;;;1.33;1.30;;;;;;;9.36;73.77;100860.06;5061385;28;20115;-77
2022/11/15 00:37:07;;;;;;;2.65;2.45;;;;;;;9.36;73.89;100862.72;5064041;28;20031;-77
2022/11/15 00:39:33;;;;;;;0.13;0.13;;;;;;;9.36;73.94;100855.66;5062118;28;20031;-76
2022/11/15 00:41:59;;;;;;;0.38;0.38;;;;;;;9.39;74.24;100866.19;5068301;28;20032;-77
2022/11/15 00:44:25;;;;;;;1.15;1.15;;;;;;;9.38;74.18;100853.88;5063578;28;20032;-77
2022/11/15 00:46:51;;;;;;;0.32;0.32;;;;;;;9.42;74.24;100851.16;5065295;28;20044;-76
2022/11/15 00:49:17;;;;;;;0.10;0.10;;;;;;;9.43;74.05;100845.84;5069913;28;20020;-76
2022/11/15 00:51:44;;;;;;;1.95;1.85;;;;;;;9.45;74.50;100848.47;5061166;28;20041;-76
2022/11/15 00:54:10;;;;;;;0.30;0.30;;;;;;;9.45;74.46;100835.25;5066568;28;20025;-77
2022/11/15 00:56:36;;;;;;;0.22;0.22;;;;;;;9.47;74.44;100836.09;5061409;28;20520;-76
2022/11/15 00:59:02;;;;;;;0.10;0.10;;;;;;;9.47;74.70;100828.16;5068611;28;20028;-77
2022/11/15 01:01:28;;;;;;;2.13;0.95;;;;;;;9.48;74.81;100832.56;5062441;28;20032;-76
2022/11/15 01:03:54;;;;;;;0.32;0.32;;;;;;;9.51;74.80;100835.16;5066072;28;20396;-77
2022/11/15 01:06:20;;;;;;;0.90;0.90;;;;;;;9.53;74.49;100841.28;5071318;28;20078;-77
2022/11/15 01:08:47;;;;;;;0.43;0.43;;;;;;;9.54;74.90;100837.75;5069702;28;20047;-77
2022/11/15 01:11:13;;;;;;;0.80;0.80;;;;;;;9.55;74.84;100834.22;5064143;28;20063;-77
2022/11/15 01:13:40;;;;;;;1.35;0.85;;;;;;;9.56;75.23;100830.69;5061887;28;20052;-76
2022/11/15 01:16:09;;;;;;;0.10;0.10;;;;;;;9.57;75.13;100827.13;5072058;28;20031;-76
2022/11/15 01:18:36;;;;;;;1.30;1.30;;;;;;;9.60;74.88;100828.84;5072519;28;20076;-75
2022/11/15 01:21:09;;;;;;;1.05;1.00;;;;;;;9.59;75.38;100821.81;5068058;28;20036;-76
2022/11/15 01:23:35;;;;;;;3.00;2.70;;;;;;;9.60;74.83;100821.78;5072502;28;20027;-77
2022/11/15 01:26:04;;;;;;;2.08;1.38;;;;;;;9.64;74.94;100818.19;5071384;28;20032;-76
2022/11/15 01:28:34;;;;;;;1.55;1.45;;;;;;;9.65;75.03;100814.63;5072946;28;20035;-76
2022/11/15 01:31:03;;;;;;;0.20;0.20;;;;;;;9.63;75.25;100813.81;5059348;28;20037;-75
2022/11/15 01:33:30;;;;;;;0.68;0.68;;;;;;;9.67;75.31;100809.31;5059921;28;20047;-76
2022/11/15 01:35:56;;;;;;;3.22;2.78;;;;;;;9.67;75.45;100809.31;5060011;28;20036;-77
2022/11/15 01:38:23;;;;;;;1.55;1.00;;;;;;;9.67;75.26;100815.50;5061715;28;20512;-76
2022/11/15 01:40:49;;;;;;;1.08;0.82;;;;;;;9.69;75.45;100811.06;5060147;28;20045;-77
2022/11/15 01:46:21;;;;;;;0.22;0.22;;;;;;;9.75;75.37;100807.41;5107879;27;20415;-77
2022/11/15 01:48:50;;;;;;;1.48;1.40;;;;;;;9.79;75.33;100798.53;5093106;28;20495;-77
2022/11/15 01:51:19;;;;;;;0.63;0.63;;;;;;;9.82;75.29;100800.22;5088017;28;20031;-77
2022/11/15 01:53:50;;;;;;;0.28;0.28;;;;;;;9.86;75.25;100800.16;5095229;28;20074;-77
2022/11/15 01:56:21;;;;;;;0.10;0.10;;;;;;;9.91;75.07;100800.09;5088553;28;20028;-76
2022/11/15 01:58:47;;;;;;;0.60;0.60;;;;;;;9.94;75.30;100793.88;5091910;28;20034;-77
2022/11/15 02:01:14;;;;;;;1.77;1.65;;;;;;;9.96;75.36;100786.78;5091517;28;20032;-76
2022/11/15 02:03:54;;;;;;;0.63;0.63;;;;;;;10.03;75.49;100780.44;5089512;28;20028;-77
2022/11/15 02:06:22;;;;;;;1.63;1.55;;;;;;;10.03;75.13;100780.44;5088892;28;20043;-77
2022/11/15 02:08:49;;;;;;;2.63;1.65;;;;;;;10.04;74.98;100774.25;5082660;28;20513;-77
2022/11/15 02:11:15;;;;;;;1.15;1.15;;;;;;;10.06;75.56;100775.13;5081735;28;20052;-76
2022/11/15 02:13:43;;;;;;;0.55;0.55;;;;;;;10.09;75.43;100774.19;5091337;28;20031;-77
2022/11/15 02:16:34;;;;;;;0.30;0.30;;;;;;;10.18;75.41;100766.03;5084328;28;20106;-77
2022/11/15 02:21:54;;;;;;;0.95;0.95;;;;;;;10.22;75.52;100746.56;5069579;28;20397;-77
2022/11/15 02:27:50;;;;;;;0.10;0.10;;;;;;;10.31;75.31;100745.50;5062283;27;20463;-79
2022/11/15 02:30:30;;;;;;;0.30;0.30;;;;;;;10.30;75.15;100746.41;5046960;28;20045;-79
2022/11/15 02:33:03;;;;;;;1.75;0.52;;;;;;;10.32;75.39;100741.97;5048340;28;20594;-79
2022/11/15 02:35:52;;;;;;;2.45;2.10;;;;;;;10.36;75.35;100739.22;5044859;28;20029;-79
2022/11/15 02:38:38;;;;;;;0.28;0.28;;;;;;;10.38;75.75;100738.34;5044290;28;20032;-79
2022/11/15 02:41:13;;;;;;;0.85;0.85;;;;;;;10.39;75.47;100738.28;5046623;28;20108;-80
2022/11/15 02:43:57;;;;;;;0.35;0.35;;;;;;;10.42;75.67;100730.28;5050587;28;20036;-79
2022/11/15 02:47:22;;;;;;;0.10;0.10;;;;;;;10.49;75.77;100733.69;5048249;28;20029;-79
2022/11/15 02:49:40;;;;;;;1.17;1.10;;;;;;;10.43;76.04;100729.41;5048647;28;20124;-79
2022/11/15 02:52:13;;;;;;;0.75;0.75;;;;;;;10.48;76.01;100727.53;5048421;28;20057;-79
2022/11/15 02:54:43;;;;;;;0.10;0.10;;;;;;;10.53;75.90;100730.06;5044448;28;20028;-79
2022/11/15 02:57:23;;;;;;;0.65;0.65;;;;;;;10.56;76.02;100724.69;5044638;28;20057;-79
2022/11/15 03:00:03;;;;;;;0.73;0.73;;;;;;;10.55;76.45;100725.59;5041951;28;20044;-80
2022/11/15 03:05:50;;;;;;;0.32;0.32;;;;;;;10.69;76.16;100719.97;5046981;28;20458;-77
2022/11/15 03:08:43;;;;;;;0.82;0.82;;;;;;;10.76;76.09;100707.50;5033488;28;20045;-77
2022/11/15 03:11:14;;;;;;;0.20;0.20;;;;;;;10.75;76.08;100716.34;5031382;28;20025;-77
2022/11/15 03:13:52;;;;;;;0.43;0.43;;;;;;;10.81;76.51;100713.56;5037015;28;20017;-76
2022/11/15 03:16:34;;;;;;;2.47;2.38;;;;;;;10.87;76.60;100712.56;5035296;28;20026;-77
2022/11/15 03:21:46;;;;;;;1.85;0.82;;;;;;;10.92;76.39;100716.81;5069991;27;20382;-76
2022/11/15 03:24:15;;;;;;;1.95;1.73;;;;;;;10.93;77.04;100713.25;5051877;28;20036;-76
2022/11/15 03:26:43;;;;;;;0.82;0.82;;;;;;;10.95;77.24;100719.41;5052353;28;20403;-77
2022/11/15 03:29:24;;;;;;;0.10;0.10;;;;;;;11.04;77.12;100720.97;5037731;28;20036;-77
2022/11/15 03:31:56;;;;;;;0.73;0.73;;;;;;;11.07;77.12;100726.19;5035974;28;20021;-78
2022/11/15 03:34:34;;;;;;;0.50;0.50;;;;;;;11.11;76.52;100722.53;5031914;28;20088;-76
2022/11/15 03:37:01;;;;;;;8.65;2.20;;;;;;;11.12;76.91;100721.63;5034270;28;20024;-76
2022/11/15 03:39:28;;;;;;;0.30;0.30;;;;;;;11.15;77.38;100720.69;5031496;28;20105;-77
2022/11/15 03:47:21;;;;;;;0.20;0.20;;;;;;;11.26;77.33;100710.69;5048542;28;20396;-77
2022/11/15 03:49:55;;;;;;;1.27;0.95;;;;;;;11.27;77.11;100725.69;5046313;28;20070;-76
2022/11/15 03:52:22;;;;;;;0.13;0.13;;;;;;;11.27;77.89;100728.34;5045861;28;20033;-77
2022/11/15 03:54:52;;;;;;;2.72;0.63;;;;;;;11.31;77.77;100714.13;5049132;28;20029;-77
2022/11/15 03:57:18;;;;;;;0.10;0.10;;;;;;;11.27;78.00;100712.44;5048495;28;20036;-76
2022/11/15 03:59:44;;;;;;;1.40;1.38;;;;;;;11.36;77.80;100708.69;5044714;28;20113;-77
2022/11/15 04:02:10;;;;;;;0.20;0.20;;;;;;;11.42;77.18;100705.88;5048811;28;20546;-77
2022/11/15 04:04:36;;;;;;;0.40;0.40;;;;;;;11.46;77.45;100698.72;5049397;28;20501;-77
2022/11/15 04:07:02;;;;;;;0.50;0.50;;;;;;;11.48;77.27;100700.41;5049802;28;20404;-77
2022/11/15 04:09:28;;;;;;;1.08;0.95;;;;;;;11.49;77.22;100693.34;5047594;28;20025;-77
2022/11/15 04:11:54;;;;;;;0.38;0.38;;;;;;;11.53;77.05;100695.00;5048905;28;20552;-76
2022/11/15 04:14:21;;;;;;;0.55;0.52;;;;;;;11.52;77.79;100690.59;5049450;28;20029;-76
2022/11/15 04:16:47;;;;;;;0.15;0.15;;;;;;;11.56;77.30;100680.75;5051996;28;20052;-77
2022/11/15 04:24:45;;;;;;;0.28;0.28;;;;;;;11.59;77.50;100681.56;5045897;28;20034;-76
2022/11/15 04:27:12;;;;;;;1.27;1.27;;;;;;;11.61;77.62;100681.50;5051662;28;20033;-76
2022/11/15 04:29:39;;;;;;;0.10;0.10;;;;;;;11.62;77.17;100681.47;5049293;28;20026;-76
2022/11/15 04:32:06;;;;;;;0.20;0.20;;;;;;;11.63;77.33;100677.91;5051348;28;20495;-77
2022/11/15 04:34:33;;;;;;;0.30;0.30;;;;;;;11.62;77.26;100681.47;5052461;28;20033;-76
2022/11/15 04:37:15;;;;;;;0.20;0.20;;;;;;;11.64;77.22;100692.91;5047401;28;20053;-77
2022/11/15 04:39:43;;;;;;;0.50;0.50;;;;;;;11.65;76.93;100685.81;5045722;28;20060;-75
2022/11/15 04:42:10;;;;;;;0.65;0.65;;;;;;;11.64;77.58;100690.25;5041023;28;20024;-77
2022/11/15 04:44:36;;;;;;;1.58;1.02;;;;;;;11.65;77.51;100697.31;5042566;28;20452;-77
2022/11/15 04:47:02;;;;;;;0.75;0.75;;;;;;;11.68;77.21;100693.72;5040336;28;20026;-76
2022/11/15 04:49:28;;;;;;;1.52;1.42;;;;;;;11.68;77.12;100691.06;5040761;28;20025;-77
2022/11/15 04:51:54;;;;;;;0.20;0.20;;;;;;;11.65;77.24;100707.94;5045761;28;20037;-76
2022/11/15 04:54:20;;;;;;;0.20;0.20;;;;;;;11.67;76.79;100693.75;5046949;28;20091;-76
2022/11/15 04:56:46;;;;;;;0.10;0.10;;;;;;;11.65;77.37;100694.66;5043942;28;20042;-77
2022/11/15 04:59:12;;;;;;;0.38;0.38;;;;;;;11.64;77.78;100698.22;5035410;28;20144;-77
2022/11/15 05:01:38;;;;;;;0.85;0.85;;;;;;;11.67;77.61;100704.38;5034763;28;20034;-76
2022/11/15 05:04:20;;;;;;;3.05;1.08;;;;;;;11.64;77.98;100700.88;5036453;28;20025;-77
2022/11/15 05:06:48;;;;;;;0.22;0.22;;;;;;;11.67;77.64;100704.38;5032593;28;20032;-77
2022/11/15 05:09:15;;;;;;;0.10;0.10;;;;;;;11.63;78.17;100709.75;5031020;28;20536;-76
2022/11/15 05:11:41;;;;;;;0.15;0.15;;;;;;;11.63;77.62;100714.19;5029945;28;20397;-77
2022/11/15 05:14:07;;;;;;;0.10;0.10;;;;;;;11.60;77.66;100708.94;5032775;28;20061;-77
2022/11/15 05:16:33;;;;;;;0.52;0.52;;;;;;;11.66;77.72;100714.09;5032389;28;20112;-77
2022/11/15 05:18:59;;;;;;;0.45;0.45;;;;;;;11.67;77.92;100715.84;5034537;28;20034;-77
2022/11/15 05:21:25;;;;;;;0.20;0.20;;;;;;;11.72;78.05;100724.56;5035092;28;20032;-77
2022/11/15 05:23:52;;;;;;;0.55;0.55;;;;;;;11.71;78.27;100716.63;5030188;28;20061;-77
2022/11/15 05:26:18;;;;;;;0.20;0.20;;;;;;;11.80;78.00;100711.06;5029121;28;20017;-77
2022/11/15 05:28:45;;;;;;;1.00;1.00;;;;;;;11.81;78.35;100710.16;5029227;28;20029;-76
2022/11/15 05:31:14;;;;;;;0.10;0.10;;;;;;;11.88;78.39;100703.78;5033684;28;20057;-77
2022/11/15 05:33:42;;;;;;;0.20;0.20;;;;;;;11.92;77.44;100704.56;5032300;28;20559;-77
2022/11/15 05:38:49;;;;;;;1.15;0.68;;;;;;;11.95;77.79;100704.47;5087614;27;20386;-77
2022/11/15 05:41:18;;;;;;;0.90;0.90;;;;;;;11.98;77.64;100697.31;5073820;28;20104;-77
2022/11/15 05:43:48;;;;;;;0.65;0.65;;;;;;;11.97;78.15;100698.25;5080527;28;20038;-77
2022/11/15 05:46:14;;;;;;;0.10;0.10;;;;;;;12.03;77.61;100704.31;5079437;28;20111;-77
2022/11/15 05:48:45;;;;;;;0.10;0.10;;;;;;;12.05;77.92;100699.78;5069901;28;20079;-77
2022/11/15 05:51:14;;;;;;;0.10;0.10;;;;;;;12.07;77.85;100706.81;5077715;28;20028;-78
2022/11/15 05:53:40;;;;;;;0.85;0.85;;;;;;;12.03;77.98;100701.66;5072067;28;20029;-77
2022/11/15 05:56:06;;;;;;;0.50;0.50;;;;;;;12.07;77.45;100705.94;5073438;28;20016;-77
2022/11/15 05:58:33;;;;;;;0.15;0.15;;;;;;;12.09;77.61;100712.09;5079191;28;20054;-76
2022/11/15 06:01:00;;;;;;;0.15;0.15;;;;;;;12.11;77.45;100710.25;5079604;28;20040;-77
2022/11/15 06:03:26;;;;;;;0.13;0.13;;;;;;;12.09;77.31;100718.25;5082553;28;20024;-77
2022/11/15 06:05:52;;;;;;;0.10;0.10;;;;;;;12.11;77.08;100711.13;5073452;28;20553;-77
2022/11/15 06:08:18;;;;;;;0.10;0.10;;;;;;;12.09;77.33;100717.41;5078609;28;20066;-77
2022/11/15 06:10:44;;;;;;;1.65;1.55;;;;;;;12.10;77.21;100724.44;5077872;28;20032;-77
2022/11/15 06:13:10;;;;;;;0.20;0.20;;;;;;;12.08;77.11;100724.50;5079477;28;20040;-77
2022/11/15 06:15:36;;;;;;;0.20;0.20;;;;;;;12.09;76.80;100723.59;5079860;28;20047;-77
2022/11/15 06:18:03;;;;;;;0.10;0.10;;;;;;;12.06;77.23;100733.41;5079598;28;20037;-77
2022/11/15 06:20:29;;;;;;;0.17;0.17;;;;;;;12.05;76.82;100737.88;5078366;28;20477;-77
2022/11/15 06:22:58;;;;;;;1.20;0.52;;;;;;;12.04;76.88;100740.56;5071773;28;20029;-77
2022/11/15 06:25:25;;;;;;;0.10;0.10;;;;;;;12.01;76.65;100743.28;5073009;28;20043;-78
2022/11/15 06:27:54;;;;;;;0.10;0.10;;;;;;;11.98;76.50;100742.47;5077837;28;20031;-77
2022/11/15 06:30:21;;;;;;;0.47;0.47;;;;;;;11.94;76.20;100748.75;5079717;28;20031;-77
2022/11/15 06:32:47;;;;;;;0.55;0.55;;;;;;;11.91;76.32;100742.63;5075912;28;20037;-76
2022/11/15 06:35:14;;;;;;;0.40;0.40;;;;;;;11.87;76.08;100744.50;5078940;28;20484;-77
2022/11/15 06:37:41;;;;;;;0.20;0.20;;;;;;;11.81;76.76;100749.97;5071393;28;20052;-77
2022/11/15 06:40:09;;;;;;;0.20;0.20;;;;;;;11.76;76.20;100746.56;5078153;28;20111;-77
2022/11/15 06:42:35;;;;;;;0.10;0.10;;;;;;;11.69;75.61;100750.28;5083264;28;20031;-77
2022/11/15 06:45:01;;;;;;;0.10;0.10;;;;;;;11.57;76.33;100751.50;5090752;28;20601;-77
2022/11/15 06:47:28;;;;;;;0.10;0.10;;;;;;;11.53;76.08;100749.84;5088304;28;20032;-77
2022/11/15 06:49:54;;;;;;;0.20;0.20;;;;;;;11.46;76.17;100754.41;5068275;28;20504;-77
2022/11/15 06:52:21;;;;;;;0.35;0.35;;;;;;;11.40;75.99;100762.53;5067103;28;20039;-77
2022/11/15 06:54:47;;;;;;;0.45;0.45;;;;;;;11.34;75.70;100755.63;5078735;28;20020;-76
2022/11/15 06:57:13;;;;;;;0.10;0.10;;;;;;;11.26;75.49;100755.78;5078525;28;20028;-77
2022/11/15 06:59:39;;;;;;;0.10;0.10;;;;;;;11.23;75.72;100763.81;5069553;28;20045;-77
2022/11/15 07:02:05;;;;;;;0.10;0.10;;;;;;;11.17;75.03;100763.97;5067372;28;20035;-76
2022/11/15 07:04:31;;;;;;;0.10;0.10;;;;;;;11.14;75.53;100769.31;5061132;28;20039;-76
2022/11/15 07:06:57;;;;;;;0.15;0.15;;;;;;;11.07;76.28;100768.59;5065071;28;20032;-77
2022/11/15 07:09:23;;;;;;;0.10;0.10;;;;;;;11.08;76.06;100769.47;5073799;28;20033;-75
2022/11/15 07:11:49;;;;;;;0.10;0.10;;;;;;;11.10;76.12;100762.34;5074999;28;20024;-76
2022/11/15 07:14:15;;;;;;;0.10;0.10;;;;;;;11.11;75.66;100758.81;5072564;28;20115;-77
2022/11/15 07:16:42;;;;;;;0.10;0.10;;;;;;;11.12;75.96;100744.66;5064933;28;20079;-76
2022/11/15 07:19:09;;;;;;;0.20;0.20;;;;;;;11.11;75.91;100749.06;5059525;28;20052;-76
2022/11/15 07:21:35;;;;;;;0.10;0.10;;;;;;;11.13;76.19;100754.34;5066288;28;20029;-77
2022/11/15 07:24:02;;;;;;;0.25;0.25;;;;;;;11.12;75.86;100756.09;5062336;28;20028;-76
2022/11/15 07:26:28;;;;;;;0.15;0.15;;;;;;;11.12;76.42;100755.25;5062479;28;20094;-76
2022/11/15 07:28:54;;;;;;;0.35;0.35;;;;;;;11.15;76.46;100760.47;5069523;28;20043;-77
2022/11/15 07:31:20;;;;;;;0.17;0.17;;;;;;;11.10;77.01;100763.25;5058390;28;20424;-76
2022/11/15 07:33:46;;;;;;;0.17;0.17;;;;;;;11.18;76.80;100776.31;5066095;28;20024;-77
2022/11/15 07:36:12;;;;;;;0.10;0.10;;;;;;;11.20;76.42;100771.84;5071356;28;20056;-77
2022/11/15 07:38:39;;;;;;;0.10;0.10;;;;;;;11.22;76.53;100761.22;5067707;28;20044;-78
2022/11/15 07:41:06;;;;;;;0.10;0.10;;;;;;;11.18;76.66;100760.41;5069009;28;20032;-76
2022/11/15 07:43:33;;;;;;;0.13;0.13;;;;;;;11.19;76.21;100755.97;5074657;28;20111;-78
2022/11/15 07:46:04;;;;;;;0.43;0.43;;;;;;;11.12;76.88;100749.94;5068688;28;20070;-77
2022/11/15 07:48:30;;;;;;;0.50;0.50;;;;;;;11.12;76.82;100744.66;5066843;28;20035;-77
2022/11/15 07:50:56;;;;;;;0.20;0.20;;;;;;;11.11;76.84;100753.50;5070090;28;20425;-77
2022/11/15 07:53:22;;;;;;;0.10;0.10;;;;;;;11.12;76.75;100752.59;5066157;28;20028;-77
2022/11/15 07:55:48;;;;;;;0.10;0.10;;;;;;;11.13;76.61;100754.34;5067280;28;20048;-77
2022/11/15 07:58:14;;;;;;;0.10;0.10;;;;;;;11.15;76.94;100755.16;5069105;28;20507;-77
2022/11/15 08:00:41;;;;;;;0.25;0.25;;;;;;;11.20;77.01;100747.09;5060169;28;20040;-77
2022/11/15 08:03:10;;;;;;;2.80;1.13;;;;;;;11.23;77.23;100741.75;5065537;28;20028;-77
2022/11/15 08:05:38;;;;;;;1.45;0.73;;;;;;;11.29;76.75;100741.56;5066754;28;20931;-75
2022/11/15 08:08:04;;;;;;;0.20;0.20;;;;;;;11.29;77.28;100739.81;5065009;28;20043;-77
2022/11/15 08:10:31;;;;;;;0.32;0.32;;;;;;;11.33;76.96;100743.25;5064977;28;20040;-76
2022/11/15 08:13:03;;;;;;;0.10;0.10;;;;;;;11.36;77.64;100734.34;5072704;28;20036;-76
2022/11/15 08:15:30;;;;;;;0.20;0.20;;;;;;;11.36;76.95;100721.09;5063103;28;20031;-74
2022/11/15 08:17:58;;;;;;;0.10;0.10;;;;;;;11.36;77.14;100718.44;5071199;28;20028;-77
2022/11/15 08:20:26;;;;;;;3.70;0.85;;;;;;;11.36;77.35;100721.94;5065339;28;20051;-77
2022/11/15 08:22:52;;;;;;;0.25;0.25;;;;;;;11.36;77.11;100716.63;5067357;28;20013;-77
2022/11/15 08:25:18;;;;;;;0.57;0.57;;;;;;;11.42;76.95;100720.94;5074902;28;20030;-77
2022/11/15 08:27:44;;;;;;;0.10;0.10;;;;;;;11.43;77.19;100712.06;5076288;28;20028;-77
2022/11/15 08:30:11;;;;;;;0.20;0.20;;;;;;;11.45;77.36;100713.78;5071603;28;20038;-77
2022/11/15 08:32:37;;;;;;;0.10;0.10;;;;;;;11.50;77.38;100716.28;5072366;28;20068;-77
2022/11/15 08:35:03;;;;;;;1.00;1.00;;;;;;;11.57;77.08;100714.34;5058629;28;20513;-77
2022/11/15 08:37:29;;;;;;;2.05;1.38;;;;;;;11.58;77.24;100711.66;5054908;28;20059;-78
2022/11/15 08:39:55;;;;;;;0.22;0.22;;;;;;;11.62;77.24;100718.59;5070879;28;20097;-77
2022/11/15 08:42:21;;;;;;;0.10;0.10;;;;;;;11.67;77.34;100715.00;5081153;28;20094;-77
2022/11/15 08:44:47;;;;;;;2.00;0.77;;;;;;;11.71;76.36;100716.63;5061448;28;20032;-77
2022/11/15 08:47:14;;;;;;;1.85;0.65;;;;;;;11.71;76.58;100711.31;5070760;28;20049;-76
2022/11/15 08:49:40;;;;;;;0.10;0.10;;;;;;;11.73;76.28;100712.16;5073980;28;20103;-77
2022/11/15 08:52:06;;;;;;;1.10;1.02;;;;;;;11.76;76.70;100704.09;5076368;28;20093;-77
2022/11/15 08:54:32;;;;;;;0.10;0.10;;;;;;;11.80;76.37;100700.44;5073419;28;20040;-77
2022/11/15 08:56:58;;;;;;;1.85;0.65;;;;;;;11.79;75.88;100701.38;5083313;28;20127;-77
2022/11/15 08:59:24;;;;;;;0.10;0.10;;;;;;;11.81;75.23;100691.56;5071934;28;20517;-77
2022/11/15 09:01:50;;;;;;;0.65;0.65;;;;;;;11.87;75.07;100686.09;5073609;28;20534;-77
2022/11/15 09:04:17;;;;;;;0.20;0.20;;;;;;;11.89;75.30;100686.94;5065800;28;20029;-77
2022/11/15 09:06:43;;;;;;;1.48;1.40;;;;;;;11.89;75.18;100681.63;5055409;28;20028;-77
2022/11/15 09:09:09;;;;;;;0.77;0.77;;;;;;;11.90;74.45;100680.72;5061476;28;20035;-77
2022/11/15 09:11:35;;;;;;;0.30;0.30;;;;;;;11.90;74.63;100691.34;5080334;28;20032;-77
2022/11/15 09:14:01;;;;;;;0.25;0.25;;;;;;;11.97;74.52;100692.94;5079009;28;20039;-77
2022/11/15 09:16:27;;;;;;;0.82;0.40;;;;;;;11.95;74.34;100689.41;5072576;28;20663;-77
2022/11/15 09:18:54;;;;;;;0.40;0.40;;;;;;;12.02;74.02;100695.44;5073573;28;20035;-78
2022/11/15 09:21:20;;;;;;;0.10;0.10;;;;;;;12.04;73.75;100693.63;5059031;28;20377;-77
2022/11/15 09:23:46;;;;;;;0.30;0.30;;;;;;;12.12;74.08;100690.75;5072764;28;20450;-77
2022/11/15 09:26:13;;;;;;;0.10;0.10;;;;;;;12.18;73.60;100689.72;5077424;28;20047;-76
2022/11/15 09:28:41;;;;;;;0.55;0.55;;;;;;;12.19;73.26;100697.63;5081158;28;20505;-77
2022/11/15 09:31:08;;;;;;;0.10;0.10;;;;;;;12.27;73.55;100695.63;5080291;28;20081;-77
2022/11/15 09:33:34;;;;;;;0.40;0.40;;;;;;;12.23;72.92;100693.97;5072675;28;20024;-77
2022/11/15 09:36:04;;;;;;;0.20;0.20;;;;;;;12.26;73.20;100685.03;5072632;28;20028;-77
2022/11/15 09:38:31;;;;;;;1.23;0.98;;;;;;;12.35;72.70;100687.44;5071401;28;20031;-77
2022/11/15 09:44:08;;;;;;;0.10;0.10;;;;;;;12.58;72.43;100689.38;5080373;27;20365;-77
2022/11/15 09:46:59;;;;;;;0.25;0.25;;;;;;;12.64;71.42;100682.16;5069944;28;20032;-78
2022/11/15 09:49:25;;;;;;;0.10;0.10;;;;;;;12.70;71.65;100687.28;5049333;28;20028;-78
2022/11/15 09:51:54;;;;;;;0.10;0.10;;;;;;;12.74;71.16;100683.59;5049880;28;20396;-78
2022/11/15 09:57:36;;;;;;;0.20;0.20;;;;;;;12.86;70.67;100687.63;5107278;27;20400;-77
2022/11/15 10:03:08;;;;;;;0.20;0.20;;;;;;;12.81;69.04;100663.88;5077178;27;20386;-77
2022/11/15 10:05:40;;;;;;;0.10;0.10;;;;;;;12.84;69.38;100655.78;5065356;28;20404;-77
2022/11/15 10:10:46;;;;;;;0.20;0.20;;;;;;;12.86;68.86;100656.63;5117716;27;20382;-77
2022/11/15 10:13:23;;;;;;;0.10;0.10;;;;;;;12.99;68.90;100650.88;5096543;27;20390;-77
2022/11/15 10:15:51;;;;;;;0.60;0.43;;;;;;;12.98;68.26;100643.81;5089801;28;20023;-77
2022/11/15 10:18:28;;;;;;;0.10;0.10;;;;;;;13.01;68.28;100631.31;5103834;28;20747;-77
2022/11/15 10:20:59;;;;;;;0.28;0.28;;;;;;;13.08;68.41;100634.63;5089581;28;20070;-78
2022/11/15 10:23:27;;;;;;;0.20;0.20;;;;;;;13.09;67.98;100633.69;5094846;28;20024;-77
2022/11/15 10:26:07;;;;;;;2.05;0.65;;;;;;;13.19;68.22;100632.44;5098901;28;20033;-77
2022/11/15 10:28:33;;;;;;;0.17;0.17;;;;;;;13.17;67.24;100633.44;5098557;28;20029;-77
2022/11/15 10:31:01;;;;;;;0.20;0.20;;;;;;;13.27;67.32;100633.06;5090275;28;20115;-78
2022/11/15 10:46:48;;;;;;;0.10;0.10;;;;;;;13.75;65.20;100604.75;5068614;28;20391;-77
2022/11/15 10:49:34;;;;;;;0.20;0.20;;;;;;;13.79;64.41;100605.53;5051150;28;20516;-77
2022/11/15 10:54:48;;;;;;;0.13;0.13;;;;;;;13.93;64.00;100597.00;5108196;27;20756;-77
2022/11/15 10:57:18;;;;;;;0.13;0.13;;;;;;;13.95;64.44;100599.63;5107675;28;20039;-77
2022/11/15 10:59:48;;;;;;;0.15;0.15;;;;;;;13.94;64.02;100595.22;5086722;28;20024;-80
2022/11/15 11:02:36;;;;;;;0.10;0.10;;;;;;;13.98;63.71;100591.50;5086542;28;20024;-77
2022/11/15 11:05:24;;;;;;;0.10;0.10;;;;;;;13.94;64.03;100592.56;5085350;28;20399;-77
2022/11/15 11:07:58;;;;;;;0.10;0.10;;;;;;;13.82;62.70;100589.44;5085925;28;20040;-76
2022/11/15 11:10:24;;;;;;;0.10;0.10;;;;;;;13.86;63.41;100587.53;5087999;28;20087;-76
2022/11/15 11:12:50;;;;;;;0.10;0.10;;;;;;;13.85;63.46;100581.31;5088174;28;20063;-77
2022/11/15 11:15:18;;;;;;;0.10;0.10;;;;;;;13.85;63.53;100580.47;5088069;28;20036;-76
2022/11/15 11:18:01;;;;;;;0.10;0.10;;;;;;;13.80;61.99;100577.13;5088982;28;20037;-76
2022/11/15 11:20:38;;;;;;;0.30;0.30;;;;;;;13.80;63.22;100569.97;5086553;28;20028;-76
2022/11/15 11:23:44;;;;;;;0.10;0.10;;;;;;;13.91;62.99;100566.91;5086277;28;20066;-76
2022/11/15 11:26:32;;;;;;;0.10;0.10;;;;;;;13.96;63.20;100556.09;5087206;28;20032;-77
2022/11/15 11:35:09;;;;;;;0.10;0.10;;;;;;;14.06;62.23;100533.50;5116561;27;20704;-77
2022/11/15 11:37:45;;;;;;;0.10;0.10;;;;;;;14.03;61.53;100522.94;5102945;28;20036;-76
2022/11/15 11:43:27;;;;;;;0.10;0.10;;;;;;;14.12;61.14;100532.38;5110884;27;20384;-76
2022/11/15 11:49:09;;;;;;;0.10;0.10;;;;;;;14.23;61.07;100517.69;5114813;27;20334;-79
2022/11/15 11:51:43;;;;;;;0.57;0.57;;;;;;;14.18;60.54;100514.34;5109102;28;20028;-78
2022/11/15 11:54:38;;;;;;;0.40;0.40;;;;;;;14.24;60.38;100498.13;5107677;27;20020;-78
2022/11/15 11:57:11;;;;;;;0.20;0.20;;;;;;;14.29;61.02;100491.72;5106867;28;20425;-78
2022/11/15 11:59:49;;;;;;;0.30;0.30;;;;;;;14.34;61.22;100484.41;5109769;28;20020;-77
2022/11/15 12:02:28;;;;;;;0.43;0.43;;;;;;;14.34;60.49;100479.97;5110169;28;20035;-78
2022/11/15 12:05:07;;;;;;;0.10;0.10;;;;;;;14.46;60.77;100483.91;5109073;28;20019;-77
2022/11/15 12:07:36;;;;;;;0.10;0.10;;;;;;;14.51;60.93;100471.22;5109883;28;20032;-77
2022/11/15 12:10:19;;;;;;;0.10;0.10;;;;;;;14.71;61.14;100472.22;5111045;28;20039;-78
2022/11/15 12:13:13;;;;;;;0.10;0.10;;;;;;;14.80;61.24;100458.47;5112376;28;20031;-78
2022/11/15 12:18:19;;;;;;;0.10;0.10;;;;;;;14.96;59.87;100449.81;5050231;28;20389;-78
2022/11/15 12:21:13;;;;;;;0.85;0.85;;;;;;;15.07;58.98;100447.53;5043205;28;20561;-77
2022/11/15 12:23:49;;;;;;;1.27;0.77;;;;;;;15.04;59.70;100432.53;5044543;28;20033;-77
2022/11/15 12:26:29;;;;;;;0.10;0.10;;;;;;;15.10;59.37;100426.03;5043969;28;20033;-78
2022/11/15 12:29:03;;;;;;;0.10;0.10;;;;;;;15.08;58.58;100424.38;5042989;28;20028;-78
2022/11/15 12:36:56;;;;;;;0.10;0.10;;;;;;;15.25;59.00;100419.13;5085257;27;20392;-78
2022/11/15 12:40:02;;;;;;;0.10;0.10;;;;;;;15.34;59.37;100412.50;5073057;28;20039;-77
2022/11/15 12:45:28;;;;;;;0.10;0.10;;;;;;;15.38;58.52;100411.41;5127978;27;20150;-78
2022/11/15 12:48:11;;;;;;;0.10;0.10;;;;;;;15.42;58.76;100405.00;5128186;27;20051;-78
2022/11/15 12:53:44;;;;;;;0.10;0.10;;;;;;;15.22;56.83;100399.75;5050294;28;20410;-80
2022/11/15 13:07:02;;;;;;;0.10;0.10;;;;;;;14.86;57.25;100375.53;5064542;28;20143;-78
2022/11/15 13:12:14;;;;;;;0.10;0.10;;;;;;;14.64;58.24;100372.94;5055634;28;20411;-77
2022/11/15 13:23:13;;;;;;;0.10;0.10;;;;;;;14.45;57.92;100358.69;5112098;27;20363;-77